sensor_id;sensor_type;location;lat;lon;timestamp;temperature;humidity
16321;DHT22;8269;50.990;4.494;2023-07-02T00:00:59;16.90;99.90
16321;DHT22;8269;50.990;4.494;2023-07-02T00:03:25;16.90;99.90
16321;DHT22;8269;50.990;4.494;2023-07-02T00:05:51;16.90;99.90
16321;DHT22;8269;50.990;4.494;2023-07-02T00:08:20;16.90;99.90
16321;DHT22;8269;50.990;4.494;2023-07-02T00:10:45;16.90;99.90
16321;DHT22;8269;50.990;4.494;2023-07-02T00:13:14;16.90;99.90
16321;DHT22;8269;50.990;4.494;2023-07-02T00:15:40;16.90;99.90
16321;DHT22;8269;50.990;4.494;2023-07-02T00:18:06;16.80;99.90
16321;DHT22;8269;50.990;4.494;2023-07-02T00:20:33;16.80;99.90
16321;DHT22;8269;50.990;4.494;2023-07-02T00:23:06;16.80;99.90
16321;DHT22;8269;50.990;4.494;2023-07-02T00:25:34;16.80;99.90
16321;DHT22;8269;50.990;4.494;2023-07-02T00:28:00;16.80;99.90
16321;DHT22;8269;50.990;4.494;2023-07-02T00:30:26;16.80;99.90
16321;DHT22;8269;50.990;4.494;2023-07-02T00:32:51;16.80;99.90
16321;DHT22;8269;50.990;4.494;2023-07-02T00:35:17;16.80;99.90
16321;DHT22;8269;50.990;4.494;2023-07-02T00:37:43;16.80;99.90
16321;DHT22;8269;50.990;4.494;2023-07-02T00:40:08;16.70;99.90
16321;DHT22;8269;50.990;4.494;2023-07-02T00:42:34;16.70;99.90
16321;DHT22;8269;50.990;4.494;2023-07-02T00:45:01;16.70;99.90
16321;DHT22;8269;50.990;4.494;2023-07-02T00:47:34;16.60;99.90
16321;DHT22;8269;50.990;4.494;2023-07-02T00:50:00;16.60;99.90
16321;DHT22;8269;50.990;4.494;2023-07-02T00:52:27;16.70;99.90
16321;DHT22;8269;50.990;4.494;2023-07-02T00:54:52;16.60;99.90
16321;DHT22;8269;50.990;4.494;2023-07-02T00:57:19;16.60;99.90
16321;DHT22;8269;50.990;4.494;2023-07-02T00:59:45;16.60;99.90
16321;DHT22;8269;50.990;4.494;2023-07-02T01:02:11;16.60;99.90
16321;DHT22;8269;50.990;4.494;2023-07-02T01:04:38;16.60;99.90
16321;DHT22;8269;50.990;4.494;2023-07-02T01:07:05;16.60;99.90
16321;DHT22;8269;50.990;4.494;2023-07-02T01:09:36;16.60;99.90
16321;DHT22;8269;50.990;4.494;2023-07-02T01:12:04;16.60;99.90
16321;DHT22;8269;50.990;4.494;2023-07-02T01:14:34;16.60;99.90
16321;DHT22;8269;50.990;4.494;2023-07-02T01:17:01;16.50;99.90
16321;DHT22;8269;50.990;4.494;2023-07-02T01:19:49;16.50;99.90
16321;DHT22;8269;50.990;4.494;2023-07-02T01:22:24;16.50;99.90
16321;DHT22;8269;50.990;4.494;2023-07-02T01:24:51;16.60;99.90
16321;DHT22;8269;50.990;4.494;2023-07-02T01:27:17;16.50;99.90
16321;DHT22;8269;50.990;4.494;2023-07-02T01:29:44;16.50;99.90
16321;DHT22;8269;50.990;4.494;2023-07-02T01:32:13;16.50;99.90
16321;DHT22;8269;50.990;4.494;2023-07-02T01:34:39;16.50;99.90
16321;DHT22;8269;50.990;4.494;2023-07-02T01:37:05;16.60;99.90
16321;DHT22;8269;50.990;4.494;2023-07-02T01:39:31;16.60;99.90
16321;DHT22;8269;50.990;4.494;2023-07-02T01:42:19;16.50;99.90
16321;DHT22;8269;50.990;4.494;2023-07-02T01:44:47;16.50;99.90
16321;DHT22;8269;50.990;4.494;2023-07-02T01:47:13;16.60;99.90
16321;DHT22;8269;50.990;4.494;2023-07-02T01:49:41;16.60;99.90
16321;DHT22;8269;50.990;4.494;2023-07-02T01:52:07;16.60;99.90
16321;DHT22;8269;50.990;4.494;2023-07-02T01:54:34;16.50;99.90
16321;DHT22;8269;50.990;4.494;2023-07-02T01:57:00;16.50;99.90
16321;DHT22;8269;50.990;4.494;2023-07-02T01:59:26;16.60;99.90
16321;DHT22;8269;50.990;4.494;2023-07-02T02:01:51;16.50;99.90
16321;DHT22;8269;50.990;4.494;2023-07-02T02:04:18;16.50;99.90
16321;DHT22;8269;50.990;4.494;2023-07-02T02:06:44;16.40;99.90
16321;DHT22;8269;50.990;4.494;2023-07-02T02:09:10;16.50;99.90
16321;DHT22;8269;50.990;4.494;2023-07-02T02:11:44;16.50;99.90
16321;DHT22;8269;50.990;4.494;2023-07-02T02:14:10;16.40;99.90
16321;DHT22;8269;50.990;4.494;2023-07-02T02:16:36;16.40;99.90
16321;DHT22;8269;50.990;4.494;2023-07-02T02:19:01;16.30;99.90
16321;DHT22;8269;50.990;4.494;2023-07-02T02:21:28;16.30;99.90
16321;DHT22;8269;50.990;4.494;2023-07-02T02:23:54;16.20;99.90
16321;DHT22;8269;50.990;4.494;2023-07-02T02:26:21;16.20;99.90
16321;DHT22;8269;50.990;4.494;2023-07-02T02:28:47;16.10;99.90
16321;DHT22;8269;50.990;4.494;2023-07-02T02:31:14;16.10;99.90
16321;DHT22;8269;50.990;4.494;2023-07-02T02:33:40;16.10;99.90
16321;DHT22;8269;50.990;4.494;2023-07-02T02:36:05;16.00;99.90
16321;DHT22;8269;50.990;4.494;2023-07-02T02:38:31;16.00;99.90
16321;DHT22;8269;50.990;4.494;2023-07-02T02:40:59;16.00;99.90
16321;DHT22;8269;50.990;4.494;2023-07-02T02:43:25;15.90;99.90
16321;DHT22;8269;50.990;4.494;2023-07-02T02:45:51;15.90;99.90
16321;DHT22;8269;50.990;4.494;2023-07-02T02:48:19;15.80;99.90
16321;DHT22;8269;50.990;4.494;2023-07-02T02:50:45;15.80;99.90
16321;DHT22;8269;50.990;4.494;2023-07-02T02:53:11;15.80;99.90
16321;DHT22;8269;50.990;4.494;2023-07-02T02:55:37;15.70;99.90
16321;DHT22;8269;50.990;4.494;2023-07-02T02:58:03;15.70;99.90
16321;DHT22;8269;50.990;4.494;2023-07-02T03:00:29;15.60;99.90
16321;DHT22;8269;50.990;4.494;2023-07-02T03:02:54;15.60;99.90
16321;DHT22;8269;50.990;4.494;2023-07-02T03:05:21;15.60;99.90
16321;DHT22;8269;50.990;4.494;2023-07-02T03:07:47;15.70;99.90
16321;DHT22;8269;50.990;4.494;2023-07-02T03:10:12;15.60;99.90
16321;DHT22;8269;50.990;4.494;2023-07-02T03:12:38;15.60;99.90
16321;DHT22;8269;50.990;4.494;2023-07-02T03:15:04;15.60;99.90
16321;DHT22;8269;50.990;4.494;2023-07-02T03:17:30;15.60;99.90
16321;DHT22;8269;50.990;4.494;2023-07-02T03:19:55;15.60;99.90
16321;DHT22;8269;50.990;4.494;2023-07-02T03:22:21;15.60;99.90
16321;DHT22;8269;50.990;4.494;2023-07-02T03:24:46;15.50;99.90
16321;DHT22;8269;50.990;4.494;2023-07-02T03:27:12;15.50;99.90
16321;DHT22;8269;50.990;4.494;2023-07-02T03:29:38;15.60;99.90
16321;DHT22;8269;50.990;4.494;2023-07-02T03:32:05;15.50;99.90
16321;DHT22;8269;50.990;4.494;2023-07-02T03:34:31;15.50;99.90
16321;DHT22;8269;50.990;4.494;2023-07-02T03:36:56;15.50;99.90
16321;DHT22;8269;50.990;4.494;2023-07-02T03:39:22;15.50;99.90
16321;DHT22;8269;50.990;4.494;2023-07-02T03:41:48;15.50;99.90
16321;DHT22;8269;50.990;4.494;2023-07-02T03:44:13;15.50;99.90
16321;DHT22;8269;50.990;4.494;2023-07-02T03:46:39;15.60;99.90
16321;DHT22;8269;50.990;4.494;2023-07-02T03:49:05;15.60;99.90
16321;DHT22;8269;50.990;4.494;2023-07-02T03:51:31;15.50;99.90
16321;DHT22;8269;50.990;4.494;2023-07-02T03:54:00;15.50;99.90
16321;DHT22;8269;50.990;4.494;2023-07-02T03:56:25;15.50;99.90
16321;DHT22;8269;50.990;4.494;2023-07-02T03:58:52;15.50;99.90
16321;DHT22;8269;50.990;4.494;2023-07-02T04:01:18;15.50;99.90
16321;DHT22;8269;50.990;4.494;2023-07-02T04:03:51;15.50;99.90
16321;DHT22;8269;50.990;4.494;2023-07-02T04:06:16;15.50;99.90
16321;DHT22;8269;50.990;4.494;2023-07-02T04:08:43;15.50;99.90
16321;DHT22;8269;50.990;4.494;2023-07-02T04:11:09;15.50;99.90
16321;DHT22;8269;50.990;4.494;2023-07-02T04:13:35;15.60;99.90
16321;DHT22;8269;50.990;4.494;2023-07-02T04:16:00;15.50;99.90
16321;DHT22;8269;50.990;4.494;2023-07-02T04:18:26;15.60;99.90
16321;DHT22;8269;50.990;4.494;2023-07-02T04:20:52;15.60;99.90
16321;DHT22;8269;50.990;4.494;2023-07-02T04:23:17;15.70;99.90
16321;DHT22;8269;50.990;4.494;2023-07-02T04:25:43;15.70;99.90
16321;DHT22;8269;50.990;4.494;2023-07-02T04:28:08;15.80;99.90
16321;DHT22;8269;50.990;4.494;2023-07-02T04:30:34;15.80;99.90
16321;DHT22;8269;50.990;4.494;2023-07-02T04:33:00;15.80;99.90
16321;DHT22;8269;50.990;4.494;2023-07-02T04:35:26;15.90;99.90
16321;DHT22;8269;50.990;4.494;2023-07-02T04:37:51;15.90;99.90
16321;DHT22;8269;50.990;4.494;2023-07-02T04:40:17;15.90;99.90
16321;DHT22;8269;50.990;4.494;2023-07-02T04:42:43;15.90;99.90
16321;DHT22;8269;50.990;4.494;2023-07-02T04:45:13;16.00;99.90
16321;DHT22;8269;50.990;4.494;2023-07-02T04:47:43;16.00;99.90
16321;DHT22;8269;50.990;4.494;2023-07-02T04:50:09;16.00;99.90
16321;DHT22;8269;50.990;4.494;2023-07-02T04:52:35;16.20;99.90
16321;DHT22;8269;50.990;4.494;2023-07-02T04:55:02;16.20;99.90
16321;DHT22;8269;50.990;4.494;2023-07-02T04:57:28;16.20;99.90
16321;DHT22;8269;50.990;4.494;2023-07-02T04:59:54;16.30;99.90
16321;DHT22;8269;50.990;4.494;2023-07-02T05:02:20;16.30;99.90
16321;DHT22;8269;50.990;4.494;2023-07-02T05:04:45;16.30;99.90
16321;DHT22;8269;50.990;4.494;2023-07-02T05:07:11;16.30;99.90
16321;DHT22;8269;50.990;4.494;2023-07-02T05:09:36;16.40;99.90
16321;DHT22;8269;50.990;4.494;2023-07-02T05:12:02;16.40;99.90
16321;DHT22;8269;50.990;4.494;2023-07-02T05:14:28;16.40;99.90
16321;DHT22;8269;50.990;4.494;2023-07-02T05:16:53;16.40;99.90
16321;DHT22;8269;50.990;4.494;2023-07-02T05:19:19;16.40;99.90
16321;DHT22;8269;50.990;4.494;2023-07-02T05:21:45;16.50;99.90
16321;DHT22;8269;50.990;4.494;2023-07-02T05:24:10;16.50;99.90
16321;DHT22;8269;50.990;4.494;2023-07-02T05:26:36;16.60;99.90
16321;DHT22;8269;50.990;4.494;2023-07-02T05:29:02;16.80;99.90
16321;DHT22;8269;50.990;4.494;2023-07-02T05:31:27;16.90;99.90
16321;DHT22;8269;50.990;4.494;2023-07-02T05:33:54;17.00;99.90
16321;DHT22;8269;50.990;4.494;2023-07-02T05:36:20;17.00;99.90
16321;DHT22;8269;50.990;4.494;2023-07-02T05:38:46;17.00;99.90
16321;DHT22;8269;50.990;4.494;2023-07-02T05:41:18;17.30;99.90
16321;DHT22;8269;50.990;4.494;2023-07-02T05:43:44;17.60;99.90
16321;DHT22;8269;50.990;4.494;2023-07-02T05:46:09;17.80;99.90
16321;DHT22;8269;50.990;4.494;2023-07-02T05:48:35;17.90;99.90
16321;DHT22;8269;50.990;4.494;2023-07-02T05:51:00;18.00;99.90
16321;DHT22;8269;50.990;4.494;2023-07-02T05:53:26;18.30;99.90
16321;DHT22;8269;50.990;4.494;2023-07-02T05:55:52;18.20;99.90
16321;DHT22;8269;50.990;4.494;2023-07-02T05:58:17;18.10;99.90
16321;DHT22;8269;50.990;4.494;2023-07-02T06:00:43;18.10;99.90
16321;DHT22;8269;50.990;4.494;2023-07-02T06:05:47;18.20;99.90
16321;DHT22;8269;50.990;4.494;2023-07-02T06:10:40;18.00;99.90
16321;DHT22;8269;50.990;4.494;2023-07-02T06:13:05;17.70;99.90
16321;DHT22;8269;50.990;4.494;2023-07-02T06:17:57;17.80;99.90
16321;DHT22;8269;50.990;4.494;2023-07-02T06:20:22;17.90;99.90
16321;DHT22;8269;50.990;4.494;2023-07-02T06:22:48;18.00;99.90
16321;DHT22;8269;50.990;4.494;2023-07-02T06:25:14;18.10;99.90
16321;DHT22;8269;50.990;4.494;2023-07-02T06:27:39;18.00;99.90
16321;DHT22;8269;50.990;4.494;2023-07-02T06:30:05;18.10;99.90
16321;DHT22;8269;50.990;4.494;2023-07-02T06:32:31;18.10;99.90
16321;DHT22;8269;50.990;4.494;2023-07-02T06:34:57;18.20;99.90
16321;DHT22;8269;50.990;4.494;2023-07-02T06:37:23;18.40;99.90
16321;DHT22;8269;50.990;4.494;2023-07-02T06:39:49;18.50;99.90
16321;DHT22;8269;50.990;4.494;2023-07-02T06:42:14;18.60;99.90
16321;DHT22;8269;50.990;4.494;2023-07-02T06:44:40;18.60;99.90
16321;DHT22;8269;50.990;4.494;2023-07-02T06:47:06;18.70;99.90
16321;DHT22;8269;50.990;4.494;2023-07-02T06:49:32;18.80;99.90
16321;DHT22;8269;50.990;4.494;2023-07-02T06:51:58;18.90;99.90
16321;DHT22;8269;50.990;4.494;2023-07-02T06:54:25;18.90;99.90
16321;DHT22;8269;50.990;4.494;2023-07-02T06:56:51;18.90;99.90
16321;DHT22;8269;50.990;4.494;2023-07-02T06:59:20;19.00;99.90
16321;DHT22;8269;50.990;4.494;2023-07-02T07:01:46;19.00;99.90
16321;DHT22;8269;50.990;4.494;2023-07-02T07:04:12;19.10;99.90
16321;DHT22;8269;50.990;4.494;2023-07-02T07:06:38;18.90;99.90
16321;DHT22;8269;50.990;4.494;2023-07-02T07:09:03;19.00;99.90
16321;DHT22;8269;50.990;4.494;2023-07-02T07:13:55;19.10;99.90
16321;DHT22;8269;50.990;4.494;2023-07-02T07:16:21;19.10;99.90
16321;DHT22;8269;50.990;4.494;2023-07-02T07:18:47;19.40;99.90
16321;DHT22;8269;50.990;4.494;2023-07-02T07:23:40;19.50;99.90
16321;DHT22;8269;50.990;4.494;2023-07-02T07:26:05;19.60;99.90
16321;DHT22;8269;50.990;4.494;2023-07-02T07:28:31;19.60;99.90
16321;DHT22;8269;50.990;4.494;2023-07-02T07:30:57;19.70;99.90
16321;DHT22;8269;50.990;4.494;2023-07-02T07:33:22;19.70;99.90
16321;DHT22;8269;50.990;4.494;2023-07-02T07:38:14;19.80;99.90
16321;DHT22;8269;50.990;4.494;2023-07-02T07:40:40;19.70;99.90
16321;DHT22;8269;50.990;4.494;2023-07-02T07:45:33;19.70;99.90
16321;DHT22;8269;50.990;4.494;2023-07-02T07:47:58;19.70;99.90
16321;DHT22;8269;50.990;4.494;2023-07-02T07:50:24;19.60;99.90
16321;DHT22;8269;50.990;4.494;2023-07-02T07:52:50;19.70;99.90
16321;DHT22;8269;50.990;4.494;2023-07-02T07:55:16;19.80;99.90
16321;DHT22;8269;50.990;4.494;2023-07-02T07:57:42;19.90;99.90
16321;DHT22;8269;50.990;4.494;2023-07-02T08:00:08;20.20;99.90
16321;DHT22;8269;50.990;4.494;2023-07-02T08:02:37;20.40;99.90
16321;DHT22;8269;50.990;4.494;2023-07-02T08:05:03;20.40;99.90
16321;DHT22;8269;50.990;4.494;2023-07-02T08:07:31;20.40;99.90
16321;DHT22;8269;50.990;4.494;2023-07-02T08:09:57;20.60;99.90
16321;DHT22;8269;50.990;4.494;2023-07-02T08:12:23;20.60;99.90
16321;DHT22;8269;50.990;4.494;2023-07-02T08:14:49;20.90;99.90
16321;DHT22;8269;50.990;4.494;2023-07-02T08:17:15;21.50;99.90
16321;DHT22;8269;50.990;4.494;2023-07-02T08:19:40;21.70;99.90
16321;DHT22;8269;50.990;4.494;2023-07-02T08:22:06;21.90;99.90
16321;DHT22;8269;50.990;4.494;2023-07-02T08:24:32;22.00;99.90
16321;DHT22;8269;50.990;4.494;2023-07-02T08:26:58;22.60;99.90
16321;DHT22;8269;50.990;4.494;2023-07-02T08:29:24;22.80;99.90
16321;DHT22;8269;50.990;4.494;2023-07-02T08:31:49;22.90;99.90
16321;DHT22;8269;50.990;4.494;2023-07-02T08:34:15;23.00;99.90
16321;DHT22;8269;50.990;4.494;2023-07-02T08:36:41;23.00;99.90
16321;DHT22;8269;50.990;4.494;2023-07-02T08:39:09;22.80;99.90
16321;DHT22;8269;50.990;4.494;2023-07-02T08:41:44;22.80;99.90
16321;DHT22;8269;50.990;4.494;2023-07-02T08:44:11;23.00;99.60
16321;DHT22;8269;50.990;4.494;2023-07-02T08:46:39;23.40;98.60
16321;DHT22;8269;50.990;4.494;2023-07-02T09:13:53;25.00;96.50
16321;DHT22;8269;50.990;4.494;2023-07-02T09:16:29;25.00;90.90
16321;DHT22;8269;50.990;4.494;2023-07-02T17:34:28;21.80;73.80
16321;DHT22;8269;50.990;4.494;2023-07-02T17:46:42;21.30;94.10
16321;DHT22;8269;50.990;4.494;2023-07-02T18:38:02;19.80;78.70
16321;DHT22;8269;50.990;4.494;2023-07-02T18:50:15;19.50;76.40
16321;DHT22;8269;50.990;4.494;2023-07-02T19:09:47;18.70;77.40
16321;DHT22;8269;50.990;4.494;2023-07-02T19:12:13;18.60;77.20
16321;DHT22;8269;50.990;4.494;2023-07-02T19:14:39;18.70;77.90
16321;DHT22;8269;50.990;4.494;2023-07-02T19:17:06;18.60;78.50
16321;DHT22;8269;50.990;4.494;2023-07-02T19:19:33;18.50;78.20
16321;DHT22;8269;50.990;4.494;2023-07-02T19:24:25;18.30;78.70
16321;DHT22;8269;50.990;4.494;2023-07-02T19:43:59;18.20;81.20
16321;DHT22;8269;50.990;4.494;2023-07-02T19:46:25;18.10;82.00
16321;DHT22;8269;50.990;4.494;2023-07-02T19:58:37;17.60;84.00
16321;DHT22;8269;50.990;4.494;2023-07-02T21:29:09;16.50;93.70
16321;DHT22;8269;50.990;4.494;2023-07-02T21:31:36;16.50;94.10
16321;DHT22;8269;50.990;4.494;2023-07-02T21:34:03;16.40;94.50
16321;DHT22;8269;50.990;4.494;2023-07-02T21:36:29;16.30;94.80
16321;DHT22;8269;50.990;4.494;2023-07-02T21:38:56;16.20;95.20
16321;DHT22;8269;50.990;4.494;2023-07-02T21:41:21;16.10;95.50
16321;DHT22;8269;50.990;4.494;2023-07-02T21:43:47;16.00;95.70
16321;DHT22;8269;50.990;4.494;2023-07-02T21:46:13;16.00;96.10
16321;DHT22;8269;50.990;4.494;2023-07-02T21:48:39;16.00;96.40
16321;DHT22;8269;50.990;4.494;2023-07-02T21:51:05;15.90;96.70
